Time;durP1;ratioP1;P1;durP2;ratioP2;P2;SDS_P1;SDS_P2;PMS_P1;PMS_P2;Temp;Humidity;BMP_temperature;BMP_pressure;BME280_temperature;BME280_humidity;BME280_pressure;Samples;Min_cycle;Max_cycle;Signal;HPM_P1;HPM_P2
2023/08/06 00:00:28;;;;;;;;;;;;;;;25.34;63.88;98290.78;3147937;28;19930;-70
2023/08/06 00:02:00;;;;;;;;;;;;;;;25.36;63.53;98299.41;3154367;28;19959;-71
2023/08/06 00:03:30;;;;;;;;;;;;;;;25.37;63.74;98301.03;3154831;28;19985;-70
2023/08/06 00:05:02;;;;;;;;;;;;;;;25.36;63.36;98294.06;3154660;28;20018;-70
2023/08/06 00:06:33;;;;;;;;;;;;;;;25.35;63.72;98290.59;3154254;28;20510;-70
2023/08/06 00:08:04;;;;;;;;;;;;;;;25.37;63.66;98295.69;3154444;28;19985;-71
2023/08/06 00:09:35;;;;;;;;;;;;;;;25.34;63.42;98280.94;3154505;28;19988;-71
2023/08/06 00:11:07;;;;;;;;;;;;;;;25.35;63.28;98279.09;3154867;28;20838;-71
2023/08/06 00:12:39;;;;;;;;;;;;;;;25.33;63.57;98275.81;3129788;28;20363;-71
2023/08/06 00:14:10;;;;;;;;;;;;;;;25.28;63.98;98276.41;3152754;28;20331;-70
2023/08/06 00:15:41;;;;;;;;;;;;;;;25.27;64.07;98274.78;3154329;28;19924;-70
2023/08/06 00:17:13;;;;;;;;;;;;;;;25.26;63.95;98277.63;3154476;28;19924;-70
2023/08/06 00:18:44;;;;;;;;;;;;;;;25.22;64.30;98271.06;3154553;28;19928;-70
2023/08/06 00:20:15;;;;;;;;;;;;;;;25.20;64.58;98276.59;3154359;28;19924;-71
2023/08/06 00:21:46;;;;;;;;;;;;;;;25.16;64.75;98276.16;3154198;28;19931;-70
2023/08/06 00:23:17;;;;;;;;;;;;;;;25.12;65.08;98272.25;3154334;28;20004;-70
2023/08/06 00:24:49;;;;;;;;;;;;;;;25.12;65.20;98282.09;3149564;28;19924;-70
2023/08/06 00:26:20;;;;;;;;;;;;;;;25.05;66.05;98268.72;3154205;28;20373;-70
2023/08/06 00:27:53;;;;;;;;;;;;;;;25.01;66.22;98264.81;3153852;28;20006;-71
2023/08/06 00:29:23;;;;;;;;;;;;;;;25.00;66.26;98281.84;3154327;28;19930;-70
2023/08/06 00:30:55;;;;;;;;;;;;;;;24.95;66.68;98277.09;3154427;28;19924;-71
2023/08/06 00:32:26;;;;;;;;;;;;;;;24.91;66.98;98283.03;3154225;28;20423;-71
2023/08/06 00:33:57;;;;;;;;;;;;;;;24.88;67.07;98292.22;3154052;28;19928;-70
2023/08/06 00:35:28;;;;;;;;;;;;;;;24.85;67.69;98297.13;3154278;28;19924;-70
2023/08/06 00:36:59;;;;;;;;;;;;;;;24.82;67.65;98292.19;3154373;28;19980;-70
2023/08/06 00:38:30;;;;;;;;;;;;;;;24.82;67.63;98290.34;3153975;28;20651;-70
2023/08/06 00:40:02;;;;;;;;;;;;;;;24.86;67.59;98282.78;3153731;28;20087;-70
2023/08/06 00:41:32;;;;;;;;;;;;;;;24.84;67.73;98280.31;3154043;28;20385;-70
2023/08/06 00:43:05;;;;;;;;;;;;;;;24.86;67.42;98286.25;3151347;28;20053;-70
2023/08/06 00:44:36;;;;;;;;;;;;;;;24.82;67.94;98276.22;3146519;28;19924;-71
2023/08/06 00:46:07;;;;;;;;;;;;;;;24.78;68.54;98266.97;3143334;28;19928;-70
2023/08/06 00:47:39;;;;;;;;;;;;;;;24.71;69.43;98270.44;3148509;28;20330;-71
2023/08/06 00:49:11;;;;;;;;;;;;;;;24.69;69.28;98271.63;3153944;28;19943;-70
2023/08/06 00:50:41;;;;;;;;;;;;;;;24.67;69.36;98263.88;3153940;28;19930;-70
2023/08/06 00:52:14;;;;;;;;;;;;;;;24.68;69.49;98264.69;3154352;28;19985;-70
2023/08/06 00:53:45;;;;;;;;;;;;;;;24.68;69.01;98265.50;3152027;28;20014;-71
2023/08/06 00:55:16;;;;;;;;;;;;;;;24.70;68.98;98266.13;3143981;28;20150;-70
2023/08/06 00:56:48;;;;;;;;;;;;;;;24.72;68.94;98266.72;3153826;28;20050;-70
2023/08/06 00:58:20;;;;;;;;;;;;;;;24.72;69.02;98249.94;3153516;28;19935;-70
2023/08/06 00:59:52;;;;;;;;;;;;;;;24.73;68.54;98252.44;3154047;28;20563;-71
2023/08/06 01:01:22;;;;;;;;;;;;;;;24.72;68.78;98244.63;3154138;28;19932;-70
2023/08/06 01:02:54;;;;;;;;;;;;;;;24.70;68.64;98244.84;3153889;28;19967;-70
2023/08/06 01:04:25;;;;;;;;;;;;;;;24.69;68.60;98245.03;3153643;28;19993;-70
2023/08/06 01:05:56;;;;;;;;;;;;;;;24.67;68.91;98236.44;3153797;28;20011;-70
2023/08/06 01:07:33;;;;;;;;;;;;;;;24.62;69.54;98236.19;3153729;28;19924;-70
2023/08/06 01:09:09;;;;;;;;;;;;;;;24.58;69.72;98242.91;3153959;28;20379;-70
2023/08/06 01:10:47;;;;;;;;;;;;;;;24.56;69.80;98240.47;3153533;28;19973;-70
2023/08/06 01:12:24;;;;;;;;;;;;;;;24.55;69.36;98246.81;3153790;28;19928;-71
2023/08/06 01:14:00;;;;;;;;;;;;;;;24.55;69.55;98244.16;3153631;28;19928;-70
2023/08/06 01:15:33;;;;;;;;;;;;;;;24.56;69.23;98248.44;3153630;28;19924;-70
2023/08/06 01:17:05;;;;;;;;;;;;;;;24.57;69.38;98249.25;3153762;28;20450;-70
2023/08/06 01:18:38;;;;;;;;;;;;;;;24.56;68.99;98251.09;3153650;28;19977;-68
2023/08/06 01:20:10;;;;;;;;;;;;;;;24.56;69.01;98252.94;3149849;28;20397;-70
2023/08/06 01:21:44;;;;;;;;;;;;;;;24.55;68.89;98254.78;3148490;28;20332;-71
2023/08/06 01:23:14;;;;;;;;;;;;;;;24.53;69.30;98251.50;3153592;28;20479;-71
2023/08/06 01:24:48;;;;;;;;;;;;;;;24.52;69.31;98253.34;3149555;28;19966;-71
2023/08/06 01:26:25;;;;;;;;;;;;;;;24.52;68.91;98250.69;3153660;28;19924;-70
2023/08/06 01:27:57;;;;;;;;;;;;;;;24.51;69.14;98265.00;3153865;28;19924;-70
2023/08/06 01:29:32;;;;;;;;;;;;;;;24.50;69.02;98262.53;3153581;28;20373;-70
2023/08/06 01:31:07;;;;;;;;;;;;;;;24.49;69.55;98271.53;3153682;28;19935;-70
2023/08/06 01:32:40;;;;;;;;;;;;;;;24.48;69.26;98259.25;3153332;28;20389;-70
2023/08/06 01:34:13;;;;;;;;;;;;;;;24.47;69.58;98257.59;3153739;28;19993;-70
2023/08/06 01:35:45;;;;;;;;;;;;;;;24.45;69.66;98251.66;3152990;28;20427;-70
2023/08/06 01:37:18;;;;;;;;;;;;;;;24.44;69.98;98252.69;3153289;28;19924;-70
2023/08/06 01:38:50;;;;;;;;;;;;;;;24.41;70.15;98247.72;3153125;28;20098;-70
2023/08/06 01:40:22;;;;;;;;;;;;;;;24.38;70.20;98238.28;3153567;28;19967;-70
2023/08/06 01:41:53;;;;;;;;;;;;;;;24.37;70.53;98235.81;3153267;28;19985;-70
2023/08/06 01:43:24;;;;;;;;;;;;;;;24.36;70.32;98228.84;3145233;28;20449;-70
2023/08/06 01:44:55;;;;;;;;;;;;;;;24.36;70.51;98223.53;3152587;28;19932;-70
2023/08/06 01:46:26;;;;;;;;;;;;;;;24.35;70.25;98214.75;3142097;28;20070;-70
2023/08/06 01:47:57;;;;;;;;;;;;;;;24.35;70.53;98216.59;3153541;28;19927;-70
2023/08/06 01:49:29;;;;;;;;;;;;;;;24.33;70.60;98218.59;3152928;28;19981;-70
2023/08/06 01:50:59;;;;;;;;;;;;;;;24.33;70.96;98213.28;3153007;28;20385;-70
2023/08/06 01:52:32;;;;;;;;;;;;;;;24.31;70.60;98218.78;3153243;28;20100;-70
2023/08/06 01:54:03;;;;;;;;;;;;;;;24.29;70.81;98213.69;3148184;28;19924;-70
2023/08/06 01:55:34;;;;;;;;;;;;;;;24.27;70.87;98226.34;3146078;28;20464;-69
2023/08/06 01:57:05;;;;;;;;;;;;;;;24.25;71.14;98236.38;3153434;28;19928;-70
2023/08/06 01:58:37;;;;;;;;;;;;;;;24.22;72.03;98233.25;3153202;28;20002;-69
2023/08/06 02:00:08;;;;;;;;;;;;;;;24.18;72.06;98235.50;3152843;28;20460;-70
2023/08/06 02:01:40;;;;;;;;;;;;;;;24.17;71.70;98235.72;3153043;28;19924;-70
2023/08/06 02:03:10;;;;;;;;;;;;;;;24.14;72.01;98244.88;3144702;28;19924;-70
2023/08/06 02:04:42;;;;;;;;;;;;;;;24.15;71.69;98254.50;3152410;28;19924;-70
2023/08/06 02:06:14;;;;;;;;;;;;;;;24.15;71.92;98265.13;3153346;28;20030;-70
2023/08/06 02:07:46;;;;;;;;;;;;;;;24.16;71.69;98261.47;3153051;28;19997;-70
2023/08/06 02:09:17;;;;;;;;;;;;;;;24.13;72.29;98256.53;3153237;28;20467;-70
2023/08/06 02:10:48;;;;;;;;;;;;;;;24.10;72.44;98240.97;3153223;28;20679;-69
2023/08/06 02:12:19;;;;;;;;;;;;;;;24.06;72.78;98231.72;3153186;28;19977;-70
2023/08/06 02:13:51;;;;;;;;;;;;;;;24.03;73.09;98234.78;3153239;28;19945;-70
2023/08/06 02:15:22;;;;;;;;;;;;;;;23.99;73.24;98239.66;3152643;28;19989;-70
2023/08/06 02:16:53;;;;;;;;;;;;;;;23.96;73.52;98242.72;3134907;28;19925;-70
2023/08/06 02:18:25;;;;;;;;;;;;;;;23.94;73.29;98236.75;3147693;28;20002;-70
2023/08/06 02:19:55;;;;;;;;;;;;;;;23.94;73.52;98235.94;3151618;28;20393;-70
2023/08/06 02:21:27;;;;;;;;;;;;;;;23.94;73.24;98238.59;3145656;28;19927;-70
2023/08/06 02:23:00;;;;;;;;;;;;;;;23.94;73.68;98241.25;3153059;28;19928;-70
2023/08/06 02:24:31;;;;;;;;;;;;;;;23.93;73.33;98244.91;3153182;28;19923;-70
2023/08/06 02:26:03;;;;;;;;;;;;;;;23.93;73.52;98228.97;3152975;28;19973;-69
2023/08/06 02:27:34;;;;;;;;;;;;;;;23.94;73.22;98225.31;3152328;28;20405;-70
2023/08/06 02:29:05;;;;;;;;;;;;;;;23.95;73.21;98232.25;3152660;28;19997;-70
2023/08/06 02:30:36;;;;;;;;;;;;;;;23.95;73.10;98235.72;3148662;28;20018;-70
2023/08/06 02:32:07;;;;;;;;;;;;;;;23.95;73.06;98227.75;3153138;28;19977;-70
2023/08/06 02:33:39;;;;;;;;;;;;;;;23.96;73.20;98224.09;3152511;28;20451;-69
2023/08/06 02:35:09;;;;;;;;;;;;;;;23.96;72.83;98224.09;3153018;28;20308;-70
2023/08/06 02:36:41;;;;;;;;;;;;;;;23.96;73.08;98228.56;3152502;28;19924;-70
2023/08/06 02:38:13;;;;;;;;;;;;;;;23.97;72.63;98224.91;3152693;28;20397;-70
2023/08/06 02:39:45;;;;;;;;;;;;;;;23.98;72.81;98216.75;3152737;28;19924;-70
2023/08/06 02:41:16;;;;;;;;;;;;;;;23.99;72.62;98228.22;3152895;28;19931;-70
2023/08/06 02:42:47;;;;;;;;;;;;;;;23.98;72.94;98227.38;3152912;28;19924;-70
2023/08/06 02:44:18;;;;;;;;;;;;;;;23.96;73.26;98217.94;3148020;28;20728;-70
2023/08/06 02:45:49;;;;;;;;;;;;;;;23.95;73.29;98213.66;3137557;28;19928;-70
2023/08/06 02:47:20;;;;;;;;;;;;;;;23.94;73.13;98215.50;3143459;28;19924;-70
2023/08/06 02:48:52;;;;;;;;;;;;;;;23.95;73.00;98218.97;3152583;28;19924;-69
2023/08/06 02:50:22;;;;;;;;;;;;;;;23.94;73.07;98220.81;3152343;28;19977;-70
2023/08/06 02:51:54;;;;;;;;;;;;;;;23.94;73.33;98220.81;3152490;28;20035;-70
2023/08/06 02:53:27;;;;;;;;;;;;;;;23.94;73.05;98222.66;3152730;28;19924;-70
2023/08/06 02:55:00;;;;;;;;;;;;;;;23.91;73.36;98226.50;3150508;28;19935;-70
2023/08/06 02:56:31;;;;;;;;;;;;;;;23.89;73.58;98222.41;3153073;28;20019;-70
2023/08/06 02:58:02;;;;;;;;;;;;;;;23.88;73.92;98210.13;3152031;28;19993;-69
2023/08/06 02:59:34;;;;;;;;;;;;;;;23.84;73.72;98209.69;3148934;28;20026;-70
2023/08/06 03:01:06;;;;;;;;;;;;;;;23.82;73.69;98203.75;3143126;28;19924;-70
2023/08/06 03:02:38;;;;;;;;;;;;;;;23.83;74.01;98208.84;3152228;28;19924;-70
2023/08/06 03:04:09;;;;;;;;;;;;;;;23.81;74.40;98216.22;3152235;28;19924;-70
2023/08/06 03:05:40;;;;;;;;;;;;;;;23.81;74.37;98218.03;3152730;28;20111;-71
2023/08/06 03:07:11;;;;;;;;;;;;;;;23.80;74.07;98214.56;3152671;28;19924;-70
2023/08/06 03:08:44;;;;;;;;;;;;;;;23.78;74.35;98219.28;3152704;28;19992;-70
2023/08/06 03:10:15;;;;;;;;;;;;;;;23.78;74.22;98210.44;3152741;28;19970;-70
2023/08/06 03:11:46;;;;;;;;;;;;;;;23.79;73.92;98212.94;3152380;28;19923;-70
2023/08/06 03:13:17;;;;;;;;;;;;;;;23.80;73.80;98217.22;3150133;28;19920;-70
2023/08/06 03:14:49;;;;;;;;;;;;;;;23.80;74.07;98222.53;3153487;28;19976;-70
2023/08/06 03:16:19;;;;;;;;;;;;;;;23.81;73.80;98218.03;3156384;28;19989;-70
2023/08/06 03:17:51;;;;;;;;;;;;;;;23.84;73.96;98218.50;3149608;28;20007;-70
2023/08/06 03:19:21;;;;;;;;;;;;;;;23.84;73.91;98221.16;3160319;28;19920;-70
2023/08/06 03:20:53;;;;;;;;;;;;;;;23.81;74.55;98213.56;3160379;28;19919;-71
2023/08/06 03:22:23;;;;;;;;;;;;;;;23.80;74.13;98208.44;3160436;28;19924;-70
2023/08/06 03:23:56;;;;;;;;;;;;;;;23.80;74.55;98206.59;3160262;28;19920;-70
2023/08/06 03:25:27;;;;;;;;;;;;;;;23.79;74.32;98212.94;3160207;28;19920;-70
2023/08/06 03:26:58;;;;;;;;;;;;;;;23.77;74.84;98208.81;3160179;28;19924;-70
2023/08/06 03:28:29;;;;;;;;;;;;;;;23.74;74.79;98222.50;3159638;28;19927;-71
2023/08/06 03:30:01;;;;;;;;;;;;;;;23.72;74.98;98228.00;3149554;28;20313;-71
2023/08/06 03:31:31;;;;;;;;;;;;;;;23.71;74.97;98231.66;3160137;28;19983;-70
2023/08/06 03:33:03;;;;;;;;;;;;;;;23.69;75.18;98232.84;3160788;28;19931;-70
2023/08/06 03:34:33;;;;;;;;;;;;;;;23.65;75.04;98232.41;3159783;28;19947;-70
2023/08/06 03:36:05;;;;;;;;;;;;;;;23.65;75.33;98231.59;3159889;28;19920;-69
2023/08/06 03:37:36;;;;;;;;;;;;;;;23.62;75.35;98233.59;3160325;28;20277;-71
2023/08/06 03:39:08;;;;;;;;;;;;;;;23.61;75.53;98225.84;3160414;28;19920;-70
2023/08/06 03:40:40;;;;;;;;;;;;;;;23.61;75.16;98229.31;3159652;28;20382;-71
2023/08/06 03:42:10;;;;;;;;;;;;;;;23.60;75.40;98218.84;3159993;28;19981;-70
2023/08/06 03:43:42;;;;;;;;;;;;;;;23.60;75.38;98221.50;3153236;28;20436;-70
2023/08/06 03:45:13;;;;;;;;;;;;;;;23.59;75.32;98220.69;3147719;28;19998;-70
2023/08/06 03:46:44;;;;;;;;;;;;;;;23.57;75.53;98221.91;3142240;28;19924;-70
2023/08/06 03:48:15;;;;;;;;;;;;;;;23.55;75.67;98235.38;3159161;28;19920;-70
2023/08/06 03:49:46;;;;;;;;;;;;;;;23.53;75.71;98232.09;3160273;28;19927;-71
2023/08/06 03:51:17;;;;;;;;;;;;;;;23.52;75.59;98225.13;3159980;28;20002;-70
2023/08/06 03:52:48;;;;;;;;;;;;;;;23.52;75.72;98226.97;3159596;28;20773;-70
2023/08/06 03:54:20;;;;;;;;;;;;;;;23.48;76.24;98226.50;3157688;28;20576;-70
2023/08/06 03:55:52;;;;;;;;;;;;;;;23.49;76.02;98228.19;3159731;28;20323;-71
2023/08/06 03:57:22;;;;;;;;;;;;;;;23.50;76.03;98227.16;3159777;28;19931;-71
2023/08/06 03:58:54;;;;;;;;;;;;;;;23.54;75.71;98227.59;3160150;28;20392;-70
2023/08/06 04:00:24;;;;;;;;;;;;;;;23.55;75.46;98235.38;3160067;28;19928;-70
2023/08/06 04:01:56;;;;;;;;;;;;;;;23.57;75.56;98241.34;3159905;28;20007;-70
2023/08/06 04:03:27;;;;;;;;;;;;;;;23.57;75.61;98240.50;3159794;28;20382;-70
2023/08/06 04:04:58;;;;;;;;;;;;;;;23.58;75.46;98239.50;3159630;28;19953;-71
2023/08/06 04:06:29;;;;;;;;;;;;;;;23.57;75.44;98246.66;3159467;28;19979;-70
2023/08/06 04:08:01;;;;;;;;;;;;;;;23.58;75.26;98247.47;3159971;28;19931;-70
2023/08/06 04:09:32;;;;;;;;;;;;;;;23.59;75.45;98243.78;3151225;28;19997;-71
2023/08/06 04:11:04;;;;;;;;;;;;;;;23.58;75.47;98236.84;3158179;28;19963;-70
2023/08/06 04:12:36;;;;;;;;;;;;;;;23.59;75.77;98239.28;3157121;28;20003;-70
2023/08/06 04:14:08;;;;;;;;;;;;;;;23.61;75.37;98239.13;3158008;28;19919;-70
2023/08/06 04:15:38;;;;;;;;;;;;;;;23.61;75.57;98237.28;3159221;28;19924;-70
2023/08/06 04:17:10;;;;;;;;;;;;;;;23.63;75.43;98237.06;3159724;28;19923;-70
2023/08/06 04:18:40;;;;;;;;;;;;;;;23.64;75.36;98236.09;3159942;28;19927;-70
2023/08/06 04:20:12;;;;;;;;;;;;;;;23.68;75.03;98244.50;3159192;28;19920;-71
2023/08/06 04:21:43;;;;;;;;;;;;;;;23.71;74.88;98241.47;3159774;28;19920;-70
2023/08/06 04:23:14;;;;;;;;;;;;;;;23.73;74.97;98242.94;3159451;28;19923;-70
2023/08/06 04:24:46;;;;;;;;;;;;;;;23.75;74.73;98251.53;3159215;28;19927;-70
2023/08/06 04:26:18;;;;;;;;;;;;;;;23.76;74.70;98250.53;3159662;28;19933;-70
2023/08/06 04:27:48;;;;;;;;;;;;;;;23.78;74.71;98259.13;3154057;28;20412;-70
2023/08/06 04:29:20;;;;;;;;;;;;;;;23.79;74.29;98263.44;3159337;28;19972;-71
2023/08/06 04:30:50;;;;;;;;;;;;;;;23.84;74.42;98265.53;3159827;28;19920;-70
2023/08/06 04:32:22;;;;;;;;;;;;;;;23.88;74.22;98255.31;3159700;28;19926;-70
2023/08/06 04:33:53;;;;;;;;;;;;;;;23.90;74.29;98258.59;3159409;28;19931;-71
2023/08/06 04:35:24;;;;;;;;;;;;;;;23.91;74.21;98258.41;3159791;28;19984;-71
2023/08/06 04:36:56;;;;;;;;;;;;;;;23.93;74.28;98255.56;3159746;28;19920;-71
2023/08/06 04:38:26;;;;;;;;;;;;;;;23.95;73.87;98250.88;3159365;28;19924;-71
2023/08/06 04:39:59;;;;;;;;;;;;;;;23.96;73.97;98255.16;3159486;28;20316;-72
2023/08/06 04:41:30;;;;;;;;;;;;;;;23.95;73.94;98242.91;3159733;28;19919;-71
2023/08/06 04:43:01;;;;;;;;;;;;;;;23.94;73.86;98238.59;3147068;28;19924;-71
2023/08/06 04:44:32;;;;;;;;;;;;;;;23.95;74.05;98237.56;3148981;28;20006;-71
2023/08/06 04:46:03;;;;;;;;;;;;;;;23.95;74.37;98229.59;3150290;28;20609;-71
2023/08/06 04:47:34;;;;;;;;;;;;;;;23.91;74.52;98242.47;3151787;28;20004;-72
2023/08/06 04:49:05;;;;;;;;;;;;;;;23.91;74.79;98239.81;3159544;28;20102;-69
2023/08/06 04:50:36;;;;;;;;;;;;;;;23.93;74.42;98250.22;3159190;28;19938;-70
2023/08/06 04:52:08;;;;;;;;;;;;;;;23.99;74.35;98247.66;3159319;28;19942;-70
2023/08/06 04:53:38;;;;;;;;;;;;;;;24.06;73.84;98253.00;3158548;28;19928;-70
2023/08/06 04:55:11;;;;;;;;;;;;;;;24.11;73.79;98253.25;3146789;28;19924;-70
2023/08/06 04:56:42;;;;;;;;;;;;;;;24.16;73.37;98244.69;3150671;28;19968;-69
2023/08/06 04:58:14;;;;;;;;;;;;;;;24.22;73.40;98241.25;3159088;28;19942;-70
2023/08/06 04:59:44;;;;;;;;;;;;;;;24.23;73.52;98242.91;3134219;28;20301;-67
2023/08/06 05:01:16;;;;;;;;;;;;;;;24.26;73.29;98245.19;3146076;28;19927;-70
2023/08/06 05:02:46;;;;;;;;;;;;;;;24.27;72.97;98258.25;3157955;28;20359;-70
2023/08/06 05:04:18;;;;;;;;;;;;;;;24.27;73.04;98263.59;3159490;28;19926;-70
2023/08/06 05:05:48;;;;;;;;;;;;;;;24.28;73.09;98264.41;3149887;28;20349;-70
2023/08/06 05:07:20;;;;;;;;;;;;;;;24.28;72.94;98259.09;3150940;28;19920;-70
2023/08/06 05:08:50;;;;;;;;;;;;;;;24.30;73.12;98255.22;3156943;28;20419;-70
2023/08/06 05:10:25;;;;;;;;;;;;;;;24.33;72.78;98256.66;3153139;28;19927;-70
2023/08/06 05:11:56;;;;;;;;;;;;;;;24.36;72.47;98255.47;3149582;28;19920;-70
2023/08/06 05:13:27;;;;;;;;;;;;;;;24.37;72.44;98249.94;3159126;28;20420;-70
2023/08/06 05:14:58;;;;;;;;;;;;;;;24.40;72.61;98249.56;3159219;28;19924;-71
2023/08/06 05:16:29;;;;;;;;;;;;;;;24.40;72.58;98252.22;3158742;28;20293;-70
2023/08/06 05:18:01;;;;;;;;;;;;;;;24.40;72.46;98246.91;3158909;28;19926;-70
2023/08/06 05:19:32;;;;;;;;;;;;;;;24.39;72.22;98249.75;3158941;28;19920;-71
2023/08/06 05:21:03;;;;;;;;;;;;;;;24.41;72.50;98250.38;3159280;28;19924;-71
2023/08/06 05:22:34;;;;;;;;;;;;;;;24.40;72.52;98260.22;3158583;28;19924;-71
2023/08/06 05:24:05;;;;;;;;;;;;;;;24.36;72.90;98261.59;3159274;28;19924;-71
2023/08/06 05:25:38;;;;;;;;;;;;;;;24.27;73.39;98268.91;3158959;28;19924;-71
2023/08/06 05:27:08;;;;;;;;;;;;;;;24.20;73.91;98270.72;3159015;28;19924;-71
2023/08/06 05:28:41;;;;;;;;;;;;;;;24.16;73.76;98260.63;3158960;28;19992;-71
2023/08/06 05:30:11;;;;;;;;;;;;;;;24.14;73.54;98257.38;3158908;28;19920;-71
2023/08/06 05:31:43;;;;;;;;;;;;;;;24.15;73.59;98249.19;3158703;28;20518;-71
2023/08/06 05:33:14;;;;;;;;;;;;;;;24.13;73.56;98242.41;3150277;28;19932;-71
2023/08/06 05:34:45;;;;;;;;;;;;;;;24.10;73.59;98245.47;3145914;28;19920;-69
2023/08/06 05:36:17;;;;;;;;;;;;;;;24.04;73.84;98242.53;3150184;28;19919;-71
2023/08/06 05:37:49;;;;;;;;;;;;;;;23.96;74.26;98241.88;3158780;28;20655;-71
2023/08/06 05:39:20;;;;;;;;;;;;;;;23.87;74.40;98253.66;3157940;28;19927;-70
2023/08/06 05:40:52;;;;;;;;;;;;;;;23.80;74.88;98251.78;3150448;28;19920;-70
2023/08/06 05:42:24;;;;;;;;;;;;;;;23.73;74.96;98242.94;3158957;28;19926;-71
2023/08/06 05:43:54;;;;;;;;;;;;;;;23.70;74.94;98245.97;3153289;28;19931;-70
2023/08/06 05:45:26;;;;;;;;;;;;;;;23.69;75.18;98240.81;3157912;28;19920;-70
2023/08/06 05:46:57;;;;;;;;;;;;;;;23.62;75.14;98243.41;3142346;28;19939;-70
2023/08/06 05:48:28;;;;;;;;;;;;;;;23.52;75.18;98237.59;3158868;28;20031;-70
2023/08/06 05:49:59;;;;;;;;;;;;;;;23.45;75.42;98228.75;3158970;28;19931;-70
2023/08/06 05:51:30;;;;;;;;;;;;;;;23.36;75.21;98225.38;3158060;28;19920;-70
2023/08/06 05:53:02;;;;;;;;;;;;;;;23.32;75.21;98226.78;3158928;28;19947;-70
2023/08/06 05:54:32;;;;;;;;;;;;;;;23.31;75.00;98225.16;3155109;28;19931;-70
2023/08/06 05:56:05;;;;;;;;;;;;;;;23.31;75.06;98231.28;3155221;28;20007;-70
2023/08/06 05:57:36;;;;;;;;;;;;;;;23.24;75.05;98234.88;3158758;28;19955;-70
2023/08/06 05:59:07;;;;;;;;;;;;;;;23.20;75.25;98234.44;3158711;28;19920;-70
2023/08/06 06:00:38;;;;;;;;;;;;;;;23.15;75.81;98231.50;3158607;28;19932;-70
2023/08/06 06:02:09;;;;;;;;;;;;;;;23.10;75.58;98229.44;3154960;28;20301;-71
2023/08/06 06:03:40;;;;;;;;;;;;;;;23.05;75.99;98236.31;3158535;28;19923;-71
2023/08/06 06:05:12;;;;;;;;;;;;;;;23.04;75.92;98235.50;3155005;28;19931;-71
2023/08/06 06:06:42;;;;;;;;;;;;;;;23.05;75.83;98237.13;3149654;28;19927;-70
2023/08/06 06:08:14;;;;;;;;;;;;;;;23.11;75.54;98238.22;3158169;28;19928;-71
2023/08/06 06:09:44;;;;;;;;;;;;;;;23.15;75.01;98229.66;3153774;28;19931;-70
2023/08/06 06:11:19;;;;;;;;;;;;;;;23.18;75.00;98225.81;3158584;28;19926;-70
2023/08/06 06:12:49;;;;;;;;;;;;;;;23.20;74.83;98222.97;3158562;28;19931;-71
2023/08/06 06:14:21;;;;;;;;;;;;;;;23.21;74.73;98220.13;3158521;28;19927;-71
2023/08/06 06:15:54;;;;;;;;;;;;;;;23.19;75.14;98224.81;3158350;28;20309;-71
2023/08/06 06:17:25;;;;;;;;;;;;;;;23.21;74.72;98221.97;3158778;28;19924;-70
2023/08/06 06:18:57;;;;;;;;;;;;;;;23.25;74.57;98221.41;3158304;28;19974;-71
2023/08/06 06:20:28;;;;;;;;;;;;;;;23.27;74.82;98229.19;3158140;28;19920;-70
2023/08/06 06:21:59;;;;;;;;;;;;;;;23.22;75.05;98221.78;3158361;28;20313;-71
2023/08/06 06:23:31;;;;;;;;;;;;;;;23.20;75.04;98229.13;3158087;28;19974;-71
2023/08/06 06:25:02;;;;;;;;;;;;;;;23.18;75.13;98220.50;3148555;28;19924;-71
2023/08/06 06:26:35;;;;;;;;;;;;;;;23.14;75.28;98225.38;3158299;28;19989;-70
2023/08/06 06:28:07;;;;;;;;;;;;;;;23.15;74.91;98221.69;3158031;28;19924;-71
2023/08/06 06:29:37;;;;;;;;;;;;;;;23.16;74.91;98215.41;3158203;28;20366;-71
2023/08/06 06:31:09;;;;;;;;;;;;;;;23.15;75.28;98232.31;3157899;28;19923;-71
2023/08/06 06:32:40;;;;;;;;;;;;;;;23.12;75.10;98240.66;3157836;28;20740;-71
2023/08/06 06:34:12;;;;;;;;;;;;;;;23.13;75.22;98239.66;3158061;28;19999;-71
2023/08/06 06:35:42;;;;;;;;;;;;;;;23.15;75.18;98242.94;3157833;28;19931;-70
2023/08/06 06:37:14;;;;;;;;;;;;;;;23.20;75.16;98260.16;3143104;28;19947;-70
2023/08/06 06:38:44;;;;;;;;;;;;;;;23.23;74.91;98249.16;3146098;28;19943;-70
2023/08/06 06:40:16;;;;;;;;;;;;;;;23.27;74.96;98247.75;3158264;28;19920;-70
2023/08/06 06:41:48;;;;;;;;;;;;;;;23.29;74.73;98248.41;3158474;28;19920;-70
2023/08/06 06:43:20;;;;;;;;;;;;;;;23.31;74.46;98239.25;3154537;28;20019;-71
2023/08/06 06:44:51;;;;;;;;;;;;;;;23.33;74.49;98233.72;3157002;28;19924;-70
2023/08/06 06:46:22;;;;;;;;;;;;;;;23.33;74.28;98233.72;3145656;28;19921;-70
2023/08/06 06:47:53;;;;;;;;;;;;;;;23.31;74.62;98233.94;3154962;28;19968;-70
2023/08/06 06:49:24;;;;;;;;;;;;;;;23.29;74.70;98227.97;3158113;28;19981;-70
2023/08/06 06:50:56;;;;;;;;;;;;;;;23.32;74.65;98227.59;3157250;28;19920;-70
2023/08/06 06:52:26;;;;;;;;;;;;;;;23.39;74.16;98230.31;3158041;28;20301;-70
2023/08/06 06:53:58;;;;;;;;;;;;;;;23.45;74.29;98236.72;3147286;28;19930;-70
2023/08/06 06:55:29;;;;;;;;;;;;;;;23.45;74.38;98239.38;3157949;28;19923;-70
2023/08/06 06:57:01;;;;;;;;;;;;;;;23.46;74.76;98238.38;3158117;28;20339;-70
2023/08/06 06:58:33;;;;;;;;;;;;;;;23.47;74.66;98238.16;3149925;28;19920;-70
2023/08/06 07:00:04;;;;;;;;;;;;;;;23.51;74.38;98241.25;3157955;28;20015;-70
2023/08/06 07:01:36;;;;;;;;;;;;;;;23.55;74.24;98238.03;3154814;28;19931;-70
2023/08/06 07:03:07;;;;;;;;;;;;;;;23.59;74.17;98238.47;3157958;28;19920;-70
2023/08/06 07:04:38;;;;;;;;;;;;;;;23.63;74.21;98229.09;3158059;28;19920;-70
2023/08/06 07:06:09;;;;;;;;;;;;;;;23.66;74.38;98241.19;3158161;28;20433;-70
2023/08/06 07:07:40;;;;;;;;;;;;;;;23.69;74.64;98246.13;3157604;28;19927;-71
2023/08/06 07:09:11;;;;;;;;;;;;;;;23.69;74.35;98254.09;3157789;28;19920;-70
2023/08/06 07:10:42;;;;;;;;;;;;;;;23.72;74.54;98257.25;3158104;28;20293;-70
2023/08/06 07:12:14;;;;;;;;;;;;;;;23.76;74.64;98255.03;3157571;28;20392;-70
2023/08/06 07:13:46;;;;;;;;;;;;;;;23.83;74.49;98258.53;3158067;28;19926;-70
2023/08/06 07:15:17;;;;;;;;;;;;;;;23.90;74.35;98255.94;3157746;28;19920;-70
2023/08/06 07:16:49;;;;;;;;;;;;;;;23.99;74.11;98257.47;3157760;28;19920;-70
2023/08/06 07:18:19;;;;;;;;;;;;;;;24.07;73.84;98267.94;3157773;28;19927;-70
2023/08/06 07:19:51;;;;;;;;;;;;;;;24.13;73.94;98261.03;3158006;28;19924;-70
2023/08/06 07:21:21;;;;;;;;;;;;;;;24.21;73.89;98269.69;3157598;28;19920;-71
2023/08/06 07:22:53;;;;;;;;;;;;;;;24.25;73.62;98265.63;3157952;28;19926;-70
2023/08/06 07:24:24;;;;;;;;;;;;;;;24.34;73.24;98278.75;3157850;28;19928;-70
2023/08/06 07:25:55;;;;;;;;;;;;;;;24.44;72.99;98284.59;3158133;28;19926;-70
2023/08/06 07:27:27;;;;;;;;;;;;;;;24.51;72.66;98288.13;3157989;28;19920;-70
2023/08/06 07:28:58;;;;;;;;;;;;;;;24.55;72.58;98297.38;3157802;28;19924;-70
2023/08/06 07:30:29;;;;;;;;;;;;;;;24.61;72.35;98301.06;3157971;28;19943;-70
2023/08/06 07:32:01;;;;;;;;;;;;;;;24.63;72.37;98299.03;3157623;28;19924;-70
2023/08/06 07:33:31;;;;;;;;;;;;;;;24.63;71.80;98296.38;3157557;28;19970;-71
2023/08/06 07:35:03;;;;;;;;;;;;;;;24.63;71.70;98286.56;3157656;28;20673;-69
2023/08/06 07:36:33;;;;;;;;;;;;;;;24.67;71.77;98284.34;3157563;28;19931;-70
2023/08/06 07:38:05;;;;;;;;;;;;;;;24.72;71.21;98273.91;3157762;28;20385;-71
2023/08/06 07:39:37;;;;;;;;;;;;;;;24.82;71.34;98268.25;3157273;28;19926;-70
2023/08/06 07:41:09;;;;;;;;;;;;;;;24.94;71.01;98269.31;3157771;28;20814;-71
2023/08/06 07:42:41;;;;;;;;;;;;;;;25.10;70.46;98266.28;3158139;28;19927;-71
2023/08/06 07:44:12;;;;;;;;;;;;;;;25.25;70.11;98260.00;3147634;28;20559;-71
2023/08/06 07:45:43;;;;;;;;;;;;;;;25.41;69.98;98272.97;3153753;28;19924;-70
2023/08/06 07:47:15;;;;;;;;;;;;;;;25.53;69.49;98275.88;3146631;28;19920;-70
2023/08/06 07:48:45;;;;;;;;;;;;;;;25.64;69.37;98272.59;3157837;28;19927;-71
2023/08/06 07:50:17;;;;;;;;;;;;;;;25.71;68.64;98267.28;3157638;28;19928;-71
2023/08/06 07:51:47;;;;;;;;;;;;;;;25.74;68.33;98258.88;3157435;28;19923;-70
2023/08/06 07:53:19;;;;;;;;;;;;;;;25.75;68.43;98266.66;3157993;28;19923;-71
2023/08/06 07:54:49;;;;;;;;;;;;;;;25.78;68.44;98268.09;3146469;28;20320;-70
2023/08/06 07:56:21;;;;;;;;;;;;;;;25.81;67.97;98270.34;3156679;28;19924;-71